createdAt,value
2023-05-21T00:01:17.155Z,16.80
2023-05-21T00:03:46.121Z,16.80
2023-05-21T00:06:16.206Z,16.10
2023-05-21T00:08:43.422Z,16.20
2023-05-21T00:11:10.190Z,16.10
2023-05-21T00:13:38.554Z,16.50
2023-05-21T00:16:05.996Z,16.40
2023-05-21T00:18:34.172Z,16.20
2023-05-21T00:21:02.135Z,16.70
2023-05-21T00:23:32.555Z,16.70
2023-05-21T00:25:59.833Z,16.40
2023-05-21T00:28:26.640Z,16.10
2023-05-21T00:30:53.622Z,16.10
2023-05-21T00:33:21.782Z,16.40
2023-05-21T00:35:48.479Z,16.30
2023-05-21T00:38:17.793Z,16.40
2023-05-21T00:40:44.773Z,16.40
2023-05-21T00:43:14.270Z,16.40
2023-05-21T00:45:44.456Z,16.40
2023-05-21T00:48:12.814Z,16.20
2023-05-21T00:50:42.959Z,16.20
2023-05-21T00:53:11.320Z,16.20
2023-05-21T00:55:40.131Z,16.10
2023-05-21T00:58:07.876Z,16.20
2023-05-21T01:00:35.939Z,16.50
2023-05-21T01:03:03.210Z,16.20
2023-05-21T01:05:30.773Z,16.20
2023-05-21T01:07:58.897Z,16.30
2023-05-21T01:10:26.515Z,16.60
2023-05-21T01:12:54.801Z,16.30
2023-05-21T01:15:21.686Z,16.00
2023-05-21T01:17:48.909Z,15.90
2023-05-21T01:20:20.229Z,15.90
2023-05-21T01:22:55.915Z,15.90
2023-05-21T01:25:23.490Z,16.20
2023-05-21T01:27:51.307Z,16.10
2023-05-21T01:30:19.832Z,16.20
2023-05-21T01:33:00.782Z,15.50
2023-05-21T01:35:32.871Z,16.20
2023-05-21T01:38:28.342Z,16.30
2023-05-21T01:41:06.961Z,15.90
2023-05-21T01:43:37.086Z,15.60
2023-05-21T01:46:05.532Z,15.70
2023-05-21T01:48:32.866Z,15.80
2023-05-21T01:51:04.901Z,15.80
2023-05-21T01:53:32.062Z,16.10
2023-05-21T01:55:59.369Z,15.80
2023-05-21T01:58:26.139Z,16.00
2023-05-21T02:00:52.987Z,15.70
2023-05-21T02:03:20.780Z,15.90
2023-05-21T02:05:47.606Z,15.50
2023-05-21T02:08:15.356Z,15.90
2023-05-21T02:10:42.310Z,16.00
2023-05-21T02:13:09.059Z,15.90
2023-05-21T02:15:36.006Z,16.20
2023-05-21T02:18:03.960Z,16.00
2023-05-21T02:20:31.376Z,16.00
2023-05-21T02:22:58.112Z,16.10
2023-05-21T02:25:24.951Z,15.90
2023-05-21T02:27:56.660Z,15.70
2023-05-21T02:30:23.441Z,15.70
2023-05-21T02:32:50.753Z,15.80
2023-05-21T02:35:17.778Z,15.70
2023-05-21T02:37:44.717Z,15.70
2023-05-21T02:40:12.095Z,15.40
2023-05-21T02:42:42.196Z,15.40
2023-05-21T02:45:10.266Z,15.40
2023-05-21T02:47:38.322Z,15.40
2023-05-21T02:50:07.907Z,15.30
2023-05-21T02:52:34.752Z,15.30
2023-05-21T02:55:01.482Z,15.40
2023-05-21T02:57:28.182Z,15.50
2023-05-21T02:59:54.917Z,15.40
2023-05-21T03:02:21.731Z,15.10
2023-05-21T03:04:48.931Z,15.20
2023-05-21T03:07:18.979Z,15.50
2023-05-21T03:09:46.553Z,15.50
2023-05-21T03:12:13.595Z,15.30
2023-05-21T03:14:40.451Z,15.20
2023-05-21T03:17:07.753Z,15.40
2023-05-21T03:19:36.016Z,15.30
2023-05-21T03:22:03.871Z,15.10
2023-05-21T03:24:31.853Z,15.10
2023-05-21T03:27:01.023Z,15.20
2023-05-21T03:29:28.482Z,15.20
2023-05-21T03:31:55.848Z,15.10
2023-05-21T03:34:23.278Z,15.10
2023-05-21T03:36:50.627Z,15.30
2023-05-21T03:39:17.525Z,15.00
2023-05-21T03:41:44.427Z,14.90
2023-05-21T03:44:11.178Z,14.80
2023-05-21T03:46:38.064Z,14.90
2023-05-21T03:49:05.049Z,15.40
2023-05-21T03:51:31.959Z,15.30
2023-05-21T03:53:59.541Z,15.20
2023-05-21T03:56:26.430Z,15.00
2023-05-21T03:58:53.469Z,15.00
2023-05-21T04:01:20.265Z,15.00
2023-05-21T04:03:47.557Z,15.10
2023-05-21T04:06:15.508Z,15.00
2023-05-21T04:08:42.715Z,14.80
2023-05-21T04:11:09.557Z,14.90
2023-05-21T04:13:36.337Z,14.90
2023-05-21T04:16:03.173Z,14.80
2023-05-21T04:18:29.931Z,14.80
2023-05-21T04:21:02.512Z,14.90
2023-05-21T04:23:29.251Z,14.90
2023-05-21T04:25:55.962Z,14.70
2023-05-21T04:28:24.736Z,14.90
2023-05-21T04:30:51.598Z,14.50
2023-05-21T04:33:20.366Z,14.70
2023-05-21T04:35:50.073Z,14.60
2023-05-21T04:38:19.601Z,14.70
2023-05-21T04:40:50.680Z,14.90
2023-05-21T04:43:17.715Z,14.70
2023-05-21T04:45:45.080Z,14.50
2023-05-21T04:48:12.654Z,14.50
2023-05-21T04:50:41.674Z,14.70
2023-05-21T04:53:08.770Z,14.70
2023-05-21T04:55:39.738Z,14.70
2023-05-21T04:58:18.056Z,14.70
2023-05-21T05:00:46.934Z,14.70
2023-05-21T05:03:14.638Z,14.80
2023-05-21T05:05:42.005Z,14.50
2023-05-21T05:08:08.772Z,14.40
2023-05-21T05:10:36.162Z,14.50
2023-05-21T05:13:02.942Z,14.30
2023-05-21T05:15:29.817Z,14.70
2023-05-21T05:17:56.709Z,14.50
2023-05-21T05:20:23.530Z,14.70
2023-05-21T05:22:50.305Z,14.70
2023-05-21T05:25:17.192Z,14.70
2023-05-21T05:27:44.098Z,14.60
2023-05-21T05:30:11.481Z,14.70
2023-05-21T05:32:39.310Z,14.70
2023-05-21T05:35:07.903Z,14.60
2023-05-21T05:37:34.674Z,14.80
2023-05-21T05:40:01.488Z,14.70
2023-05-21T05:42:28.334Z,15.00
2023-05-21T05:44:55.165Z,14.60
2023-05-21T05:47:22.130Z,14.60
2023-05-21T05:49:49.088Z,14.60
2023-05-21T05:52:16.204Z,14.70
2023-05-21T05:54:42.962Z,14.90
2023-05-21T05:57:09.727Z,14.80
2023-05-21T05:59:36.741Z,14.90
2023-05-21T06:02:03.502Z,15.10
2023-05-21T06:04:30.347Z,14.80
2023-05-21T06:06:57.723Z,14.70
2023-05-21T06:09:25.440Z,14.70
2023-05-21T06:11:52.600Z,14.80
2023-05-21T06:14:19.398Z,15.00
2023-05-21T06:16:46.192Z,15.00
2023-05-21T06:19:13.120Z,15.00
2023-05-21T06:21:39.923Z,14.90
2023-05-21T06:24:06.889Z,14.90
2023-05-21T06:26:33.669Z,15.20
2023-05-21T06:29:00.602Z,15.40
2023-05-21T06:31:28.005Z,15.30
2023-05-21T06:33:54.913Z,15.40
2023-05-21T06:36:22.120Z,15.40
2023-05-21T06:38:49.892Z,15.20
2023-05-21T06:41:16.614Z,15.80
2023-05-21T06:43:43.398Z,15.80
2023-05-21T06:46:10.313Z,15.70
2023-05-21T06:48:37.022Z,16.10
2023-05-21T06:51:03.950Z,16.20
2023-05-21T06:53:31.128Z,16.30
2023-05-21T06:55:57.920Z,16.30
2023-05-21T06:58:25.554Z,16.40
2023-05-21T07:00:52.308Z,16.10
2023-05-21T07:03:19.587Z,15.90
2023-05-21T07:05:46.463Z,16.30
2023-05-21T07:08:13.261Z,16.20
2023-05-21T07:10:40.096Z,16.50
2023-05-21T07:13:06.957Z,16.30
2023-05-21T07:15:33.776Z,16.30
2023-05-21T07:18:00.724Z,16.50
2023-05-21T07:20:28.571Z,16.30
2023-05-21T07:22:55.245Z,16.20
2023-05-21T07:25:21.985Z,16.30
2023-05-21T07:27:48.694Z,16.60
2023-05-21T07:30:15.816Z,16.70
2023-05-21T07:32:42.987Z,16.50
2023-05-21T07:35:09.895Z,16.60
2023-05-21T07:37:36.807Z,16.50
2023-05-21T07:40:04.304Z,16.80
2023-05-21T07:42:31.314Z,16.50
2023-05-21T07:44:58.111Z,16.70
2023-05-21T07:47:27.987Z,16.60
2023-05-21T07:49:55.932Z,16.60
2023-05-21T07:52:22.785Z,16.80
2023-05-21T07:54:49.628Z,16.90
2023-05-21T07:57:16.571Z,16.80
2023-05-21T07:59:43.319Z,17.00
2023-05-21T08:02:10.031Z,17.20
2023-05-21T08:04:39.226Z,17.10
2023-05-21T08:07:07.692Z,17.20
2023-05-21T08:09:34.464Z,16.80
2023-05-21T08:12:01.402Z,17.00
2023-05-21T08:14:28.135Z,17.30
2023-05-21T08:16:54.996Z,17.00
2023-05-21T08:19:21.960Z,17.20
2023-05-21T08:21:50.870Z,17.40
2023-05-21T08:24:18.968Z,17.40
2023-05-21T08:26:47.488Z,17.50
2023-05-21T08:29:14.392Z,17.30
2023-05-21T08:31:41.623Z,17.90
2023-05-21T08:34:08.441Z,17.70
2023-05-21T08:36:36.082Z,17.60
2023-05-21T08:39:04.403Z,17.90
2023-05-21T08:41:35.058Z,17.90
2023-05-21T08:44:02.682Z,17.70
2023-05-21T08:46:33.805Z,17.70
2023-05-21T08:49:02.891Z,17.80
2023-05-21T08:51:31.121Z,17.90
2023-05-21T08:53:59.715Z,18.10
2023-05-21T08:56:27.142Z,18.20
2023-05-21T08:58:54.387Z,18.00
2023-05-21T09:01:24.768Z,18.20
2023-05-21T09:04:04.908Z,18.20
2023-05-21T09:06:33.876Z,18.20
2023-05-21T09:09:10.992Z,18.20
2023-05-21T09:11:38.206Z,18.30
2023-05-21T09:14:05.741Z,18.20
2023-05-21T09:16:32.472Z,18.30
2023-05-21T09:18:59.610Z,18.20
2023-05-21T09:21:29.232Z,18.50
2023-05-21T09:24:00.254Z,18.40
2023-05-21T09:26:27.684Z,18.60
2023-05-21T09:28:59.944Z,18.60
2023-05-21T09:31:27.360Z,18.80
2023-05-21T09:33:55.590Z,18.90
2023-05-21T09:36:22.543Z,18.90
2023-05-21T09:38:51.991Z,18.60
2023-05-21T09:41:21.967Z,18.60
2023-05-21T09:43:49.342Z,18.80
2023-05-21T09:46:16.288Z,18.70
2023-05-21T09:48:43.675Z,18.90
2023-05-21T09:51:18.224Z,18.80
2023-05-21T09:53:53.338Z,19.00
2023-05-21T09:56:24.670Z,19.30
2023-05-21T09:58:58.740Z,19.20
2023-05-21T10:01:26.053Z,19.30
2023-05-21T10:04:00.381Z,19.20
2023-05-21T10:06:28.924Z,19.30
2023-05-21T10:08:59.168Z,19.40
2023-05-21T10:11:27.739Z,19.10
2023-05-21T10:14:16.328Z,19.40
2023-05-21T10:16:44.347Z,19.40
2023-05-21T10:19:12.168Z,19.80
2023-05-21T10:21:40.999Z,20.00
2023-05-21T10:24:10.197Z,19.90
2023-05-21T10:26:39.507Z,19.80
2023-05-21T10:29:07.918Z,19.80
2023-05-21T10:31:36.009Z,20.10
2023-05-21T10:34:05.917Z,20.00
2023-05-21T10:36:33.006Z,20.00
2023-05-21T10:39:01.811Z,19.80
2023-05-21T10:41:35.880Z,20.00
2023-05-21T10:44:26.481Z,20.10
2023-05-21T10:47:09.367Z,20.20
2023-05-21T10:50:08.140Z,20.00
2023-05-21T10:52:52.702Z,20.30
2023-05-21T10:55:29.208Z,20.00
2023-05-21T10:58:13.617Z,20.30
2023-05-21T11:00:41.753Z,20.20
2023-05-21T11:03:11.351Z,20.40
2023-05-21T11:05:50.829Z,20.30
2023-05-21T11:08:26.185Z,20.20
2023-05-21T11:10:58.316Z,20.10
2023-05-21T11:13:26.459Z,20.20
2023-05-21T11:15:59.737Z,20.20
2023-05-21T11:18:39.557Z,20.20
2023-05-21T11:21:08.751Z,20.00
2023-05-21T11:23:56.568Z,20.00
2023-05-21T11:26:25.114Z,20.50
2023-05-21T11:29:08.607Z,20.20
2023-05-21T11:31:39.053Z,20.20
2023-05-21T11:34:12.548Z,20.20
2023-05-21T11:36:41.173Z,20.40
2023-05-21T11:39:17.187Z,20.40
2023-05-21T11:42:04.472Z,20.30
2023-05-21T11:44:49.562Z,20.30
2023-05-21T11:47:19.677Z,20.40
2023-05-21T11:49:46.853Z,20.60
2023-05-21T11:52:14.352Z,20.40
2023-05-21T11:54:50.577Z,20.70
2023-05-21T11:57:18.792Z,20.80
2023-05-21T11:59:51.610Z,20.60
2023-05-21T12:02:19.967Z,20.50
2023-05-21T12:04:48.575Z,20.60
2023-05-21T12:07:17.391Z,20.90
2023-05-21T12:09:48.512Z,20.80
2023-05-21T12:12:21.428Z,20.50
2023-05-21T12:14:52.634Z,20.90
2023-05-21T12:17:21.616Z,20.80
2023-05-21T12:19:50.607Z,21.20
2023-05-21T12:22:17.847Z,20.90
2023-05-21T12:24:45.287Z,21.00
2023-05-21T12:27:13.517Z,21.30
2023-05-21T12:29:42.498Z,21.20
2023-05-21T12:32:12.561Z,21.20
2023-05-21T12:34:52.669Z,21.30
2023-05-21T12:37:24.484Z,21.10
2023-05-21T12:39:57.907Z,21.40
2023-05-21T12:42:27.207Z,21.40
2023-05-21T12:44:54.527Z,21.30
2023-05-21T12:47:25.405Z,21.30
2023-05-21T12:49:57.981Z,21.20
2023-05-21T12:52:25.059Z,21.20
2023-05-21T12:55:00.440Z,21.00
2023-05-21T12:57:35.317Z,20.80
2023-05-21T13:00:04.439Z,20.80
2023-05-21T13:02:38.479Z,21.00
2023-05-21T13:05:17.529Z,21.10
2023-05-21T13:07:46.839Z,20.90
2023-05-21T13:10:16.734Z,21.20
2023-05-21T13:12:45.277Z,21.20
2023-05-21T13:15:12.433Z,20.70
2023-05-21T13:17:39.384Z,20.80
2023-05-21T13:20:18.171Z,20.80
2023-05-21T13:22:47.052Z,21.00
2023-05-21T13:25:19.558Z,20.80
2023-05-21T13:27:48.656Z,20.80
2023-05-21T13:30:15.597Z,20.80
2023-05-21T13:32:43.190Z,20.90
2023-05-21T13:35:12.036Z,20.70
2023-05-21T13:37:42.216Z,21.10
2023-05-21T13:40:16.791Z,21.20
2023-05-21T13:42:48.796Z,21.30
2023-05-21T13:45:18.268Z,21.10
2023-05-21T13:47:47.178Z,21.10
2023-05-21T13:50:15.705Z,21.20
2023-05-21T13:52:43.778Z,21.20
2023-05-21T13:55:10.943Z,20.80
2023-05-21T13:57:37.943Z,20.90
2023-05-21T14:00:05.371Z,21.20
2023-05-21T14:02:32.381Z,21.00
2023-05-21T14:04:59.158Z,20.90
2023-05-21T14:07:26.637Z,20.90
2023-05-21T14:09:54.811Z,21.20
2023-05-21T14:12:21.789Z,20.80
2023-05-21T14:14:49.951Z,20.70
2023-05-21T14:17:16.781Z,21.10
2023-05-21T14:19:44.597Z,20.80
2023-05-21T14:22:11.326Z,20.90
2023-05-21T14:24:38.219Z,21.10
2023-05-21T14:27:05.237Z,21.00
2023-05-21T14:29:33.272Z,21.10
2023-05-21T14:32:02.170Z,20.90
2023-05-21T14:34:28.959Z,21.20
2023-05-21T14:36:55.696Z,21.20
2023-05-21T14:39:22.453Z,20.90
2023-05-21T14:41:49.215Z,20.90
2023-05-21T14:44:16.027Z,20.70
2023-05-21T14:46:42.823Z,20.70
2023-05-21T14:49:11.834Z,21.00
2023-05-21T14:51:38.602Z,20.80
2023-05-21T14:54:05.404Z,20.70
2023-05-21T14:56:32.585Z,20.80
2023-05-21T14:58:59.482Z,21.10
2023-05-21T15:01:26.404Z,20.90
2023-05-21T15:03:53.502Z,21.00
2023-05-21T15:06:20.552Z,21.00
2023-05-21T15:08:47.360Z,20.80
2023-05-21T15:11:14.118Z,21.00
2023-05-21T15:13:41.116Z,21.10
2023-05-21T15:16:08.038Z,21.30
2023-05-21T15:18:34.955Z,21.00
2023-05-21T15:21:01.851Z,21.30
2023-05-21T15:23:28.709Z,20.80
2023-05-21T15:25:55.603Z,20.60
2023-05-21T15:28:23.071Z,20.90
2023-05-21T15:30:50.183Z,20.80
2023-05-21T15:33:18.080Z,21.10
2023-05-21T15:35:45.191Z,21.00
2023-05-21T15:38:12.253Z,20.70
2023-05-21T15:40:41.371Z,20.50
2023-05-21T15:43:08.200Z,20.70
2023-05-21T15:45:35.297Z,20.80
2023-05-21T15:48:02.325Z,21.10
2023-05-21T15:50:29.199Z,21.00
2023-05-21T15:52:55.935Z,20.80
2023-05-21T15:55:22.758Z,20.80
2023-05-21T15:57:49.597Z,20.30
2023-05-21T16:00:17.453Z,20.90
2023-05-21T16:02:44.394Z,21.00
2023-05-21T16:05:11.264Z,21.20
2023-05-21T16:07:38.311Z,20.70
2023-05-21T16:10:06.207Z,20.40
2023-05-21T16:12:34.035Z,20.80
2023-05-21T16:15:00.851Z,20.60
2023-05-21T16:17:27.819Z,20.40
2023-05-21T16:19:54.602Z,20.50
2023-05-21T16:22:23.128Z,20.90
2023-05-21T16:24:49.934Z,20.90
2023-05-21T16:27:16.827Z,20.70
2023-05-21T16:29:43.532Z,20.60
2023-05-21T16:32:12.984Z,20.40
2023-05-21T16:34:39.850Z,20.30
2023-05-21T16:37:09.025Z,20.50
2023-05-21T16:39:37.406Z,20.50
2023-05-21T16:42:04.380Z,20.60
2023-05-21T16:44:32.049Z,20.50
2023-05-21T16:46:59.564Z,20.30
2023-05-21T16:49:27.224Z,20.40
2023-05-21T16:51:54.042Z,20.40
2023-05-21T16:54:21.061Z,20.50
2023-05-21T16:56:47.825Z,20.70
2023-05-21T16:59:14.642Z,20.30
2023-05-21T17:01:44.051Z,20.10
2023-05-21T17:04:11.103Z,20.20
2023-05-21T17:06:38.073Z,20.30
2023-05-21T17:09:04.916Z,20.60
2023-05-21T17:11:31.710Z,20.50
2023-05-21T17:13:59.487Z,20.60
2023-05-21T17:16:26.692Z,20.30
2023-05-21T17:18:53.588Z,20.40
2023-05-21T17:21:20.448Z,20.20
2023-05-21T17:23:47.389Z,20.10
2023-05-21T17:26:14.475Z,20.40
2023-05-21T17:28:41.633Z,20.20
2023-05-21T17:31:08.860Z,20.00
2023-05-21T17:33:37.458Z,19.80
2023-05-21T17:36:07.498Z,19.90
2023-05-21T17:38:35.383Z,19.90
2023-05-21T17:41:02.212Z,19.90
2023-05-21T17:43:29.008Z,19.80
2023-05-21T17:45:55.811Z,20.10
2023-05-21T17:48:26.062Z,19.90
2023-05-21T17:50:52.715Z,20.00
2023-05-21T17:53:19.565Z,20.00
2023-05-21T17:55:46.383Z,20.00
2023-05-21T17:58:14.115Z,19.90
2023-05-21T18:00:40.912Z,20.10
2023-05-21T18:03:07.774Z,19.70
2023-05-21T18:05:34.900Z,19.80
2023-05-21T18:08:02.792Z,19.90
2023-05-21T18:10:31.545Z,19.80
2023-05-21T18:12:59.409Z,19.80
2023-05-21T18:15:26.195Z,19.50
2023-05-21T18:17:53.046Z,19.60
2023-05-21T18:20:20.957Z,19.80
2023-05-21T18:22:47.684Z,19.70
2023-05-21T18:25:14.403Z,19.40
2023-05-21T18:27:41.121Z,19.50
2023-05-21T18:30:08.784Z,19.60
2023-05-21T18:32:39.213Z,19.70
2023-05-21T18:35:14.324Z,19.90
2023-05-21T18:37:44.657Z,19.50
2023-05-21T18:40:13.088Z,19.40
2023-05-21T18:42:40.191Z,19.60
2023-05-21T18:45:10.587Z,19.80
2023-05-21T18:47:39.078Z,19.90
2023-05-21T18:50:09.000Z,19.60
2023-05-21T18:52:35.706Z,19.70
2023-05-21T18:55:02.545Z,19.50
2023-05-21T18:57:29.932Z,19.40
2023-05-21T19:00:00.059Z,19.50
2023-05-21T19:02:28.212Z,19.20
2023-05-21T19:04:54.951Z,19.20
2023-05-21T19:07:21.778Z,19.30
2023-05-21T19:09:48.823Z,19.30
2023-05-21T19:12:15.683Z,19.10
2023-05-21T19:14:44.941Z,19.60
2023-05-21T19:17:13.554Z,19.50
2023-05-21T19:19:40.608Z,19.20
2023-05-21T19:22:07.536Z,19.10
2023-05-21T19:24:34.478Z,19.00
2023-05-21T19:27:01.190Z,18.80
2023-05-21T19:29:28.916Z,18.40
2023-05-21T19:31:57.352Z,18.70
2023-05-21T19:34:24.620Z,18.80
2023-05-21T19:36:53.873Z,18.40
2023-05-21T19:39:21.189Z,18.60
2023-05-21T19:41:48.091Z,18.80
2023-05-21T19:44:15.030Z,18.60
2023-05-21T19:46:41.707Z,19.00
2023-05-21T19:49:10.444Z,19.10
2023-05-21T19:51:37.372Z,19.00
2023-05-21T19:54:04.185Z,18.60
2023-05-21T19:56:30.846Z,18.90
2023-05-21T19:58:57.624Z,19.20
2023-05-21T20:01:25.388Z,19.10
2023-05-21T20:03:52.619Z,19.10
2023-05-21T20:06:20.686Z,18.70
2023-05-21T20:08:47.983Z,18.80
2023-05-21T20:11:15.109Z,18.90
2023-05-21T20:13:42.233Z,18.80
2023-05-21T20:16:10.369Z,18.50
2023-05-21T20:18:37.223Z,18.50
2023-05-21T20:21:06.334Z,18.40
2023-05-21T20:23:34.190Z,18.40
2023-05-21T20:26:00.968Z,18.50
2023-05-21T20:28:28.707Z,18.60
2023-05-21T20:30:59.663Z,18.20
2023-05-21T20:33:32.269Z,18.40
2023-05-21T20:36:00.958Z,18.40
2023-05-21T20:38:32.364Z,18.50
2023-05-21T20:40:59.502Z,18.20
2023-05-21T20:43:26.274Z,18.40
2023-05-21T20:45:59.595Z,18.50
2023-05-21T20:48:32.037Z,18.30
2023-05-21T20:51:03.282Z,18.30
2023-05-21T20:53:30.142Z,18.60
2023-05-21T20:55:57.013Z,18.10
2023-05-21T20:58:24.000Z,18.00
2023-05-21T21:00:50.982Z,18.20
2023-05-21T21:03:18.439Z,18.20
2023-05-21T21:05:45.477Z,18.40
2023-05-21T21:08:12.334Z,17.90
2023-05-21T21:10:41.294Z,18.30
2023-05-21T21:13:09.443Z,17.70
2023-05-21T21:15:36.396Z,18.10
2023-05-21T21:18:03.495Z,17.90
2023-05-21T21:20:30.406Z,17.70
2023-05-21T21:22:57.174Z,17.90
2023-05-21T21:25:23.956Z,17.80
2023-05-21T21:27:50.806Z,18.30
2023-05-21T21:30:17.553Z,18.00
2023-05-21T21:32:44.426Z,17.50
2023-05-21T21:35:11.243Z,17.30
2023-05-21T21:37:38.030Z,18.00
2023-05-21T21:40:05.562Z,17.90
2023-05-21T21:42:32.512Z,17.60
2023-05-21T21:44:59.260Z,17.70
2023-05-21T21:47:26.188Z,17.70
2023-05-21T21:49:52.961Z,17.50
2023-05-21T21:52:20.683Z,17.50
2023-05-21T21:54:47.518Z,17.40
2023-05-21T21:57:14.291Z,17.30
2023-05-21T21:59:41.146Z,17.70
2023-05-21T22:02:08.024Z,17.40
2023-05-21T22:04:34.764Z,17.40
2023-05-21T22:07:01.752Z,17.40
2023-05-21T22:09:28.701Z,17.50
2023-05-21T22:11:55.568Z,17.50
2023-05-21T22:14:22.650Z,17.50
2023-05-21T22:16:49.647Z,17.40
2023-05-21T22:19:20.450Z,17.40
2023-05-21T22:21:47.847Z,17.30
2023-05-21T22:24:30.488Z,17.30
2023-05-21T22:26:58.530Z,17.40
2023-05-21T22:29:25.531Z,17.30
2023-05-21T22:31:52.471Z,17.00
2023-05-21T22:34:19.169Z,16.90
2023-05-21T22:36:46.754Z,17.00
2023-05-21T22:39:13.504Z,16.90
2023-05-21T22:41:40.424Z,17.20
2023-05-21T22:44:08.188Z,17.40
2023-05-21T22:46:35.578Z,17.40
2023-05-21T22:49:03.003Z,17.20
2023-05-21T22:51:34.359Z,17.10
2023-05-21T22:54:01.702Z,17.30
2023-05-21T22:56:28.807Z,17.20
2023-05-21T22:58:56.376Z,17.10
2023-05-21T23:01:23.451Z,17.40
2023-05-21T23:03:51.414Z,17.40
2023-05-21T23:06:18.293Z,17.50
2023-05-21T23:08:45.210Z,17.50
2023-05-21T23:11:11.901Z,17.40
2023-05-21T23:13:38.622Z,17.00
2023-05-21T23:16:05.957Z,17.10
2023-05-21T23:18:34.343Z,17.00
2023-05-21T23:21:01.743Z,17.30
2023-05-21T23:23:28.651Z,16.70
2023-05-21T23:25:57.864Z,16.50
2023-05-21T23:28:25.503Z,16.80
2023-05-21T23:30:52.666Z,17.10
2023-05-21T23:33:20.631Z,16.40
2023-05-21T23:35:47.404Z,16.60
2023-05-21T23:38:14.319Z,17.70
2023-05-21T23:40:41.437Z,17.40
2023-05-21T23:43:08.165Z,17.20
2023-05-21T23:45:35.032Z,17.60
2023-05-21T23:48:01.832Z,17.30
2023-05-21T23:50:28.555Z,17.30
2023-05-21T23:52:55.413Z,17.00
2023-05-21T23:55:22.192Z,17.00
2023-05-21T23:57:48.881Z,17.20
